sensor_id;sensor_type;location;lat;lon;timestamp;P1;durP1;ratioP1;P2;durP2;ratioP2
59147;SDS011;44930;52.878;6.168;2022-07-05T00:00:43;5.10;;;2.90;;
59147;SDS011;44930;52.878;6.168;2022-07-05T00:03:09;3.35;;;2.42;;
59147;SDS011;44930;52.878;6.168;2022-07-05T00:05:36;5.18;;;2.92;;
59147;SDS011;44930;52.878;6.168;2022-07-05T00:08:02;3.60;;;2.20;;
59147;SDS011;44930;52.878;6.168;2022-07-05T00:10:29;8.48;;;2.40;;
59147;SDS011;44930;52.878;6.168;2022-07-05T00:12:55;3.08;;;2.35;;
59147;SDS011;44930;52.878;6.168;2022-07-05T00:15:21;3.55;;;2.20;;
59147;SDS011;44930;52.878;6.168;2022-07-05T00:17:47;6.65;;;2.65;;
59147;SDS011;44930;52.878;6.168;2022-07-05T00:20:13;2.50;;;2.03;;
59147;SDS011;44930;52.878;6.168;2022-07-05T00:22:38;3.28;;;2.13;;
59147;SDS011;44930;52.878;6.168;2022-07-05T00:25:05;4.05;;;2.20;;
59147;SDS011;44930;52.878;6.168;2022-07-05T00:27:31;5.22;;;2.53;;
59147;SDS011;44930;52.878;6.168;2022-07-05T00:29:57;3.83;;;2.50;;
59147;SDS011;44930;52.878;6.168;2022-07-05T00:32:22;4.32;;;2.55;;
59147;SDS011;44930;52.878;6.168;2022-07-05T00:34:48;5.50;;;2.83;;
59147;SDS011;44930;52.878;6.168;2022-07-05T00:37:13;3.63;;;2.38;;
59147;SDS011;44930;52.878;6.168;2022-07-05T00:39:39;4.07;;;2.53;;
59147;SDS011;44930;52.878;6.168;2022-07-05T00:42:05;3.92;;;2.08;;
59147;SDS011;44930;52.878;6.168;2022-07-05T00:44:34;3.08;;;2.33;;
59147;SDS011;44930;52.878;6.168;2022-07-05T00:47:02;6.13;;;2.67;;
59147;SDS011;44930;52.878;6.168;2022-07-05T00:49:29;4.68;;;2.80;;
59147;SDS011;44930;52.878;6.168;2022-07-05T00:51:55;7.70;;;3.67;;
59147;SDS011;44930;52.878;6.168;2022-07-05T00:54:21;6.30;;;3.08;;
59147;SDS011;44930;52.878;6.168;2022-07-05T00:56:46;4.43;;;3.33;;
59147;SDS011;44930;52.878;6.168;2022-07-05T00:59:13;4.53;;;2.85;;
59147;SDS011;44930;52.878;6.168;2022-07-05T01:01:38;6.50;;;3.92;;
59147;SDS011;44930;52.878;6.168;2022-07-05T01:04:04;3.83;;;2.88;;
59147;SDS011;44930;52.878;6.168;2022-07-05T01:06:29;6.93;;;3.13;;
59147;SDS011;44930;52.878;6.168;2022-07-05T01:08:55;4.03;;;3.22;;
59147;SDS011;44930;52.878;6.168;2022-07-05T01:11:21;4.93;;;3.58;;
59147;SDS011;44930;52.878;6.168;2022-07-05T01:13:47;5.57;;;3.00;;
59147;SDS011;44930;52.878;6.168;2022-07-05T01:16:12;3.50;;;3.08;;
59147;SDS011;44930;52.878;6.168;2022-07-05T01:18:38;5.45;;;3.70;;
59147;SDS011;44930;52.878;6.168;2022-07-05T01:21:04;3.50;;;3.05;;
59147;SDS011;44930;52.878;6.168;2022-07-05T01:23:30;6.88;;;3.17;;
59147;SDS011;44930;52.878;6.168;2022-07-05T01:25:58;4.22;;;3.20;;
59147;SDS011;44930;52.878;6.168;2022-07-05T01:28:26;4.88;;;3.88;;
59147;SDS011;44930;52.878;6.168;2022-07-05T01:30:52;5.15;;;3.60;;
59147;SDS011;44930;52.878;6.168;2022-07-05T01:33:18;4.72;;;3.88;;
59147;SDS011;44930;52.878;6.168;2022-07-05T01:35:44;4.55;;;3.70;;
59147;SDS011;44930;52.878;6.168;2022-07-05T01:38:11;4.40;;;3.40;;
59147;SDS011;44930;52.878;6.168;2022-07-05T01:40:37;4.57;;;3.60;;
59147;SDS011;44930;52.878;6.168;2022-07-05T01:43:03;7.88;;;4.00;;
59147;SDS011;44930;52.878;6.168;2022-07-05T01:45:29;4.35;;;3.95;;
59147;SDS011;44930;52.878;6.168;2022-07-05T01:48:04;7.45;;;4.07;;
59147;SDS011;44930;52.878;6.168;2022-07-05T01:50:33;5.43;;;4.32;;
59147;SDS011;44930;52.878;6.168;2022-07-05T01:53:01;7.03;;;4.40;;
59147;SDS011;44930;52.878;6.168;2022-07-05T01:55:29;6.53;;;3.80;;
59147;SDS011;44930;52.878;6.168;2022-07-05T01:57:55;4.90;;;3.67;;
59147;SDS011;44930;52.878;6.168;2022-07-05T02:00:21;4.95;;;4.20;;
59147;SDS011;44930;52.878;6.168;2022-07-05T02:02:47;8.15;;;5.00;;
59147;SDS011;44930;52.878;6.168;2022-07-05T02:05:12;5.63;;;3.40;;
59147;SDS011;44930;52.878;6.168;2022-07-05T02:07:47;5.00;;;3.40;;
59147;SDS011;44930;52.878;6.168;2022-07-05T02:10:13;4.63;;;3.55;;
59147;SDS011;44930;52.878;6.168;2022-07-05T02:12:39;6.95;;;4.47;;
59147;SDS011;44930;52.878;6.168;2022-07-05T02:15:05;10.75;;;5.10;;
59147;SDS011;44930;52.878;6.168;2022-07-05T02:17:31;6.65;;;3.83;;
59147;SDS011;44930;52.878;6.168;2022-07-05T02:19:56;6.03;;;4.20;;
59147;SDS011;44930;52.878;6.168;2022-07-05T02:22:22;6.10;;;4.60;;
59147;SDS011;44930;52.878;6.168;2022-07-05T02:24:48;7.45;;;4.93;;
59147;SDS011;44930;52.878;6.168;2022-07-05T02:27:14;6.18;;;5.22;;
59147;SDS011;44930;52.878;6.168;2022-07-05T02:29:39;6.57;;;4.80;;
59147;SDS011;44930;52.878;6.168;2022-07-05T02:32:05;6.13;;;3.80;;
59147;SDS011;44930;52.878;6.168;2022-07-05T02:34:31;5.97;;;4.70;;
59147;SDS011;44930;52.878;6.168;2022-07-05T02:36:57;5.75;;;4.25;;
59147;SDS011;44930;52.878;6.168;2022-07-05T02:39:22;6.20;;;4.13;;
59147;SDS011;44930;52.878;6.168;2022-07-05T02:41:48;4.75;;;4.30;;
59147;SDS011;44930;52.878;6.168;2022-07-05T02:44:13;5.45;;;4.75;;
59147;SDS011;44930;52.878;6.168;2022-07-05T02:46:39;10.25;;;6.45;;
59147;SDS011;44930;52.878;6.168;2022-07-05T02:49:04;9.95;;;6.03;;
59147;SDS011;44930;52.878;6.168;2022-07-05T02:51:30;9.48;;;5.57;;
59147;SDS011;44930;52.878;6.168;2022-07-05T02:53:55;6.07;;;5.43;;
59147;SDS011;44930;52.878;6.168;2022-07-05T02:56:21;9.13;;;5.55;;
59147;SDS011;44930;52.878;6.168;2022-07-05T02:58:46;6.82;;;6.13;;
59147;SDS011;44930;52.878;6.168;2022-07-05T03:01:12;10.73;;;7.85;;
59147;SDS011;44930;52.878;6.168;2022-07-05T03:03:37;6.53;;;4.90;;
59147;SDS011;44930;52.878;6.168;2022-07-05T03:06:03;5.85;;;3.78;;
59147;SDS011;44930;52.878;6.168;2022-07-05T03:08:29;6.57;;;4.10;;
59147;SDS011;44930;52.878;6.168;2022-07-05T03:10:54;5.35;;;4.20;;
59147;SDS011;44930;52.878;6.168;2022-07-05T03:13:20;6.47;;;5.32;;
59147;SDS011;44930;52.878;6.168;2022-07-05T03:15:45;5.45;;;4.57;;
59147;SDS011;44930;52.878;6.168;2022-07-05T03:18:11;8.05;;;5.40;;
59147;SDS011;44930;52.878;6.168;2022-07-05T03:20:36;7.15;;;5.05;;
59147;SDS011;44930;52.878;6.168;2022-07-05T03:23:02;8.27;;;5.30;;
59147;SDS011;44930;52.878;6.168;2022-07-05T03:25:28;5.38;;;4.72;;
59147;SDS011;44930;52.878;6.168;2022-07-05T03:27:53;6.57;;;5.60;;
59147;SDS011;44930;52.878;6.168;2022-07-05T03:30:19;6.95;;;5.47;;
59147;SDS011;44930;52.878;6.168;2022-07-05T03:32:44;7.25;;;5.95;;
59147;SDS011;44930;52.878;6.168;2022-07-05T03:35:10;6.55;;;5.25;;
59147;SDS011;44930;52.878;6.168;2022-07-05T03:37:36;6.43;;;5.75;;
59147;SDS011;44930;52.878;6.168;2022-07-05T03:40:02;7.78;;;5.72;;
59147;SDS011;44930;52.878;6.168;2022-07-05T03:42:28;10.00;;;6.22;;
59147;SDS011;44930;52.878;6.168;2022-07-05T03:44:54;8.18;;;6.78;;
59147;SDS011;44930;52.878;6.168;2022-07-05T03:47:19;6.03;;;5.40;;
59147;SDS011;44930;52.878;6.168;2022-07-05T03:49:45;7.78;;;6.30;;
59147;SDS011;44930;52.878;6.168;2022-07-05T03:52:11;10.15;;;5.78;;
59147;SDS011;44930;52.878;6.168;2022-07-05T03:54:37;5.95;;;5.35;;
59147;SDS011;44930;52.878;6.168;2022-07-05T03:57:02;6.88;;;5.88;;
59147;SDS011;44930;52.878;6.168;2022-07-05T03:59:28;9.32;;;6.18;;
59147;SDS011;44930;52.878;6.168;2022-07-05T04:01:54;7.43;;;6.28;;
59147;SDS011;44930;52.878;6.168;2022-07-05T04:04:19;7.53;;;6.15;;
59147;SDS011;44930;52.878;6.168;2022-07-05T04:06:45;7.80;;;5.68;;
59147;SDS011;44930;52.878;6.168;2022-07-05T04:09:10;7.30;;;5.68;;
59147;SDS011;44930;52.878;6.168;2022-07-05T04:11:36;9.70;;;6.38;;
59147;SDS011;44930;52.878;6.168;2022-07-05T04:14:02;6.80;;;4.85;;
59147;SDS011;44930;52.878;6.168;2022-07-05T04:16:27;7.47;;;6.30;;
59147;SDS011;44930;52.878;6.168;2022-07-05T04:18:53;7.00;;;5.65;;
59147;SDS011;44930;52.878;6.168;2022-07-05T04:21:19;9.73;;;6.20;;
59147;SDS011;44930;52.878;6.168;2022-07-05T04:23:44;8.15;;;5.60;;
59147;SDS011;44930;52.878;6.168;2022-07-05T04:26:10;5.57;;;5.03;;
59147;SDS011;44930;52.878;6.168;2022-07-05T04:28:35;8.63;;;5.38;;
59147;SDS011;44930;52.878;6.168;2022-07-05T04:31:01;6.72;;;5.50;;
59147;SDS011;44930;52.878;6.168;2022-07-05T04:33:26;8.57;;;5.72;;
59147;SDS011;44930;52.878;6.168;2022-07-05T04:35:52;9.15;;;6.00;;
59147;SDS011;44930;52.878;6.168;2022-07-05T04:38:17;10.13;;;6.18;;
59147;SDS011;44930;52.878;6.168;2022-07-05T04:40:43;10.35;;;5.70;;
59147;SDS011;44930;52.878;6.168;2022-07-05T04:43:09;6.43;;;5.07;;
59147;SDS011;44930;52.878;6.168;2022-07-05T04:45:34;8.60;;;5.60;;
59147;SDS011;44930;52.878;6.168;2022-07-05T04:48:00;8.23;;;5.55;;
59147;SDS011;44930;52.878;6.168;2022-07-05T04:50:25;9.85;;;5.57;;
59147;SDS011;44930;52.878;6.168;2022-07-05T04:52:51;8.70;;;5.55;;
59147;SDS011;44930;52.878;6.168;2022-07-05T04:55:17;7.43;;;5.68;;
59147;SDS011;44930;52.878;6.168;2022-07-05T04:57:43;6.63;;;5.15;;
59147;SDS011;44930;52.878;6.168;2022-07-05T05:00:09;8.27;;;5.57;;
59147;SDS011;44930;52.878;6.168;2022-07-05T05:02:37;6.70;;;5.28;;
59147;SDS011;44930;52.878;6.168;2022-07-05T05:05:03;6.15;;;5.13;;
59147;SDS011;44930;52.878;6.168;2022-07-05T05:07:29;5.57;;;4.40;;
59147;SDS011;44930;52.878;6.168;2022-07-05T05:09:54;5.65;;;4.95;;
59147;SDS011;44930;52.878;6.168;2022-07-05T05:12:20;7.88;;;4.30;;
59147;SDS011;44930;52.878;6.168;2022-07-05T05:14:46;4.80;;;4.28;;
59147;SDS011;44930;52.878;6.168;2022-07-05T05:17:12;8.02;;;4.90;;
59147;SDS011;44930;52.878;6.168;2022-07-05T05:19:38;8.05;;;4.53;;
59147;SDS011;44930;52.878;6.168;2022-07-05T05:22:03;6.13;;;4.60;;
59147;SDS011;44930;52.878;6.168;2022-07-05T05:24:29;6.15;;;4.70;;
59147;SDS011;44930;52.878;6.168;2022-07-05T05:26:54;6.85;;;4.43;;
59147;SDS011;44930;52.878;6.168;2022-07-05T05:29:20;6.07;;;3.90;;
59147;SDS011;44930;52.878;6.168;2022-07-05T05:31:46;8.02;;;4.45;;
59147;SDS011;44930;52.878;6.168;2022-07-05T05:34:12;5.60;;;3.70;;
59147;SDS011;44930;52.878;6.168;2022-07-05T05:36:38;5.40;;;3.88;;
59147;SDS011;44930;52.878;6.168;2022-07-05T05:39:03;4.85;;;3.35;;
59147;SDS011;44930;52.878;6.168;2022-07-05T05:41:29;4.80;;;3.75;;
59147;SDS011;44930;52.878;6.168;2022-07-05T05:43:55;5.10;;;3.33;;
59147;SDS011;44930;52.878;6.168;2022-07-05T05:46:20;6.80;;;3.45;;
59147;SDS011;44930;52.878;6.168;2022-07-05T05:48:46;5.40;;;3.53;;
59147;SDS011;44930;52.878;6.168;2022-07-05T05:51:11;9.13;;;4.70;;
59147;SDS011;44930;52.878;6.168;2022-07-05T05:53:37;5.68;;;3.40;;
59147;SDS011;44930;52.878;6.168;2022-07-05T05:56:02;4.03;;;3.00;;
59147;SDS011;44930;52.878;6.168;2022-07-05T05:58:29;6.70;;;3.13;;
59147;SDS011;44930;52.878;6.168;2022-07-05T06:00:54;8.63;;;3.70;;
59147;SDS011;44930;52.878;6.168;2022-07-05T06:03:24;10.52;;;3.85;;
59147;SDS011;44930;52.878;6.168;2022-07-05T06:05:51;8.82;;;2.70;;
59147;SDS011;44930;52.878;6.168;2022-07-05T06:08:17;10.25;;;2.38;;
59147;SDS011;44930;52.878;6.168;2022-07-05T06:10:43;5.53;;;2.42;;
59147;SDS011;44930;52.878;6.168;2022-07-05T06:13:11;4.70;;;2.10;;
59147;SDS011;44930;52.878;6.168;2022-07-05T06:15:37;4.07;;;1.95;;
59147;SDS011;44930;52.878;6.168;2022-07-05T06:18:03;6.97;;;2.72;;
59147;SDS011;44930;52.878;6.168;2022-07-05T06:20:31;4.32;;;2.10;;
59147;SDS011;44930;52.878;6.168;2022-07-05T06:22:58;7.68;;;2.40;;
59147;SDS011;44930;52.878;6.168;2022-07-05T06:25:25;3.67;;;1.95;;
59147;SDS011;44930;52.878;6.168;2022-07-05T06:27:54;8.68;;;2.45;;
59147;SDS011;44930;52.878;6.168;2022-07-05T06:30:25;5.40;;;2.10;;
59147;SDS011;44930;52.878;6.168;2022-07-05T06:32:52;3.53;;;2.22;;
59147;SDS011;44930;52.878;6.168;2022-07-05T06:35:18;6.90;;;2.00;;
59147;SDS011;44930;52.878;6.168;2022-07-05T06:37:48;3.85;;;1.13;;
59147;SDS011;44930;52.878;6.168;2022-07-05T06:40:20;8.18;;;2.20;;
59147;SDS011;44930;52.878;6.168;2022-07-05T06:42:47;6.22;;;1.63;;
59147;SDS011;44930;52.878;6.168;2022-07-05T06:45:13;5.03;;;1.38;;
59147;SDS011;44930;52.878;6.168;2022-07-05T06:47:38;5.15;;;1.45;;
59147;SDS011;44930;52.878;6.168;2022-07-05T06:50:04;4.20;;;1.40;;
59147;SDS011;44930;52.878;6.168;2022-07-05T06:52:31;4.47;;;1.60;;
59147;SDS011;44930;52.878;6.168;2022-07-05T06:55:00;5.68;;;1.20;;
59147;SDS011;44930;52.878;6.168;2022-07-05T06:57:26;4.95;;;0.95;;
59147;SDS011;44930;52.878;6.168;2022-07-05T06:59:52;4.47;;;0.98;;
59147;SDS011;44930;52.878;6.168;2022-07-05T07:02:18;4.65;;;1.05;;
59147;SDS011;44930;52.878;6.168;2022-07-05T07:04:45;5.57;;;0.90;;
59147;SDS011;44930;52.878;6.168;2022-07-05T07:07:11;4.38;;;0.90;;
59147;SDS011;44930;52.878;6.168;2022-07-05T07:10:02;2.72;;;0.80;;
59147;SDS011;44930;52.878;6.168;2022-07-05T07:12:29;6.40;;;1.02;;
59147;SDS011;44930;52.878;6.168;2022-07-05T07:14:55;5.05;;;1.10;;
59147;SDS011;44930;52.878;6.168;2022-07-05T07:17:21;4.90;;;1.02;;
59147;SDS011;44930;52.878;6.168;2022-07-05T07:19:47;2.17;;;0.68;;
59147;SDS011;44930;52.878;6.168;2022-07-05T07:22:13;4.05;;;1.08;;
59147;SDS011;44930;52.878;6.168;2022-07-05T07:24:38;3.08;;;0.75;;
59147;SDS011;44930;52.878;6.168;2022-07-05T07:27:04;12.95;;;2.05;;
59147;SDS011;44930;52.878;6.168;2022-07-05T07:29:31;4.50;;;1.48;;
59147;SDS011;44930;52.878;6.168;2022-07-05T07:31:58;7.03;;;0.80;;
59147;SDS011;44930;52.878;6.168;2022-07-05T07:34:25;3.80;;;0.77;;
59147;SDS011;44930;52.878;6.168;2022-07-05T07:36:52;3.88;;;0.88;;
59147;SDS011;44930;52.878;6.168;2022-07-05T07:39:18;4.35;;;0.90;;
59147;SDS011;44930;52.878;6.168;2022-07-05T07:41:44;5.47;;;1.02;;
59147;SDS011;44930;52.878;6.168;2022-07-05T07:44:10;4.25;;;0.80;;
59147;SDS011;44930;52.878;6.168;2022-07-05T07:46:35;4.00;;;0.93;;
59147;SDS011;44930;52.878;6.168;2022-07-05T07:49:01;3.55;;;0.93;;
59147;SDS011;44930;52.878;6.168;2022-07-05T07:51:27;2.92;;;0.80;;
59147;SDS011;44930;52.878;6.168;2022-07-05T07:53:54;7.30;;;1.40;;
59147;SDS011;44930;52.878;6.168;2022-07-05T07:56:20;2.88;;;0.75;;
59147;SDS011;44930;52.878;6.168;2022-07-05T07:58:46;16.25;;;1.05;;
59147;SDS011;44930;52.878;6.168;2022-07-05T08:01:12;4.78;;;0.80;;
59147;SDS011;44930;52.878;6.168;2022-07-05T08:03:39;2.85;;;0.90;;
59147;SDS011;44930;52.878;6.168;2022-07-05T08:06:05;2.03;;;0.70;;
59147;SDS011;44930;52.878;6.168;2022-07-05T08:08:36;3.33;;;0.60;;
59147;SDS011;44930;52.878;6.168;2022-07-05T08:11:03;3.67;;;0.80;;
59147;SDS011;44930;52.878;6.168;2022-07-05T08:13:29;3.08;;;0.68;;
59147;SDS011;44930;52.878;6.168;2022-07-05T08:15:54;4.13;;;0.68;;
59147;SDS011;44930;52.878;6.168;2022-07-05T08:18:20;1.92;;;0.93;;
59147;SDS011;44930;52.878;6.168;2022-07-05T08:21:04;4.93;;;0.90;;
59147;SDS011;44930;52.878;6.168;2022-07-05T08:23:49;2.65;;;0.70;;
59147;SDS011;44930;52.878;6.168;2022-07-05T08:26:14;3.38;;;0.80;;
59147;SDS011;44930;52.878;6.168;2022-07-05T08:28:40;1.40;;;0.60;;
59147;SDS011;44930;52.878;6.168;2022-07-05T08:31:05;2.67;;;0.82;;
59147;SDS011;44930;52.878;6.168;2022-07-05T08:33:31;6.40;;;0.90;;
59147;SDS011;44930;52.878;6.168;2022-07-05T08:35:56;3.92;;;0.70;;
59147;SDS011;44930;52.878;6.168;2022-07-05T08:38:22;2.40;;;0.82;;
59147;SDS011;44930;52.878;6.168;2022-07-05T08:40:49;5.97;;;1.42;;
59147;SDS011;44930;52.878;6.168;2022-07-05T08:43:16;1.90;;;0.60;;
59147;SDS011;44930;52.878;6.168;2022-07-05T08:45:43;2.70;;;0.82;;
59147;SDS011;44930;52.878;6.168;2022-07-05T08:48:09;5.05;;;1.00;;
59147;SDS011;44930;52.878;6.168;2022-07-05T08:50:39;3.35;;;0.85;;
59147;SDS011;44930;52.878;6.168;2022-07-05T08:53:05;3.17;;;0.88;;
59147;SDS011;44930;52.878;6.168;2022-07-05T08:55:32;2.47;;;0.70;;
59147;SDS011;44930;52.878;6.168;2022-07-05T08:57:58;5.93;;;1.25;;
59147;SDS011;44930;52.878;6.168;2022-07-05T09:00:24;4.30;;;0.70;;
59147;SDS011;44930;52.878;6.168;2022-07-05T09:02:50;3.33;;;0.82;;
59147;SDS011;44930;52.878;6.168;2022-07-05T09:05:18;3.15;;;0.90;;
59147;SDS011;44930;52.878;6.168;2022-07-05T09:07:48;2.92;;;0.80;;
59147;SDS011;44930;52.878;6.168;2022-07-05T09:10:19;3.55;;;1.00;;
59147;SDS011;44930;52.878;6.168;2022-07-05T09:12:47;4.63;;;0.90;;
59147;SDS011;44930;52.878;6.168;2022-07-05T09:15:13;2.20;;;0.80;;
59147;SDS011;44930;52.878;6.168;2022-07-05T09:17:42;2.88;;;0.88;;
59147;SDS011;44930;52.878;6.168;2022-07-05T09:20:10;3.22;;;0.90;;
59147;SDS011;44930;52.878;6.168;2022-07-05T09:25:14;5.40;;;0.90;;
59147;SDS011;44930;52.878;6.168;2022-07-05T09:28:01;6.43;;;1.20;;
59147;SDS011;44930;52.878;6.168;2022-07-05T09:33:10;2.75;;;0.70;;
59147;SDS011;44930;52.878;6.168;2022-07-05T09:35:40;4.53;;;1.05;;
59147;SDS011;44930;52.878;6.168;2022-07-05T09:38:20;2.85;;;0.95;;
59147;SDS011;44930;52.878;6.168;2022-07-05T09:40:47;4.75;;;1.10;;
59147;SDS011;44930;52.878;6.168;2022-07-05T09:43:15;5.57;;;1.00;;
59147;SDS011;44930;52.878;6.168;2022-07-05T09:46:02;3.88;;;0.88;;
59147;SDS011;44930;52.878;6.168;2022-07-05T09:48:29;3.33;;;1.20;;
59147;SDS011;44930;52.878;6.168;2022-07-05T09:51:05;5.15;;;1.73;;
59147;SDS011;44930;52.878;6.168;2022-07-05T09:53:52;3.58;;;0.93;;
59147;SDS011;44930;52.878;6.168;2022-07-05T09:56:18;4.20;;;1.20;;
59147;SDS011;44930;52.878;6.168;2022-07-05T09:58:45;4.05;;;1.02;;
59147;SDS011;44930;52.878;6.168;2022-07-05T10:01:27;3.25;;;1.08;;
59147;SDS011;44930;52.878;6.168;2022-07-05T10:03:55;4.18;;;1.00;;
59147;SDS011;44930;52.878;6.168;2022-07-05T10:06:29;5.03;;;1.45;;
59147;SDS011;44930;52.878;6.168;2022-07-05T10:08:57;4.63;;;1.27;;
59147;SDS011;44930;52.878;6.168;2022-07-05T10:11:23;4.07;;;0.95;;
59147;SDS011;44930;52.878;6.168;2022-07-05T10:13:50;2.28;;;0.80;;
59147;SDS011;44930;52.878;6.168;2022-07-05T10:16:17;3.60;;;0.98;;
59147;SDS011;44930;52.878;6.168;2022-07-05T10:18:44;6.78;;;1.23;;
59147;SDS011;44930;52.878;6.168;2022-07-05T10:21:12;7.20;;;2.55;;
59147;SDS011;44930;52.878;6.168;2022-07-05T10:23:42;5.18;;;1.08;;
59147;SDS011;44930;52.878;6.168;2022-07-05T10:26:08;5.85;;;1.65;;
59147;SDS011;44930;52.878;6.168;2022-07-05T10:28:35;2.70;;;0.98;;
59147;SDS011;44930;52.878;6.168;2022-07-05T10:31:02;3.33;;;1.10;;
59147;SDS011;44930;52.878;6.168;2022-07-05T10:33:28;2.80;;;0.80;;
59147;SDS011;44930;52.878;6.168;2022-07-05T10:35:55;3.00;;;1.25;;
59147;SDS011;44930;52.878;6.168;2022-07-05T10:38:21;3.90;;;1.23;;
59147;SDS011;44930;52.878;6.168;2022-07-05T10:40:50;3.30;;;1.30;;
59147;SDS011;44930;52.878;6.168;2022-07-05T10:43:21;2.92;;;1.33;;
59147;SDS011;44930;52.878;6.168;2022-07-05T10:45:49;2.67;;;0.90;;
59147;SDS011;44930;52.878;6.168;2022-07-05T10:48:19;4.80;;;1.88;;
59147;SDS011;44930;52.878;6.168;2022-07-05T10:53:11;6.47;;;1.13;;
59147;SDS011;44930;52.878;6.168;2022-07-05T10:55:47;4.93;;;1.10;;
59147;SDS011;44930;52.878;6.168;2022-07-05T10:58:19;7.88;;;1.35;;
59147;SDS011;44930;52.878;6.168;2022-07-05T11:00:46;4.78;;;1.38;;
59147;SDS011;44930;52.878;6.168;2022-07-05T11:06:00;4.68;;;0.90;;
59147;SDS011;44930;52.878;6.168;2022-07-05T11:08:27;2.45;;;0.47;;
59147;SDS011;44930;52.878;6.168;2022-07-05T11:11:11;3.75;;;0.90;;
59147;SDS011;44930;52.878;6.168;2022-07-05T11:13:39;3.08;;;0.57;;
59147;SDS011;44930;52.878;6.168;2022-07-05T11:21:31;4.25;;;0.63;;
59147;SDS011;44930;52.878;6.168;2022-07-05T11:26:49;2.08;;;0.68;;
59147;SDS011;44930;52.878;6.168;2022-07-05T11:32:07;4.05;;;0.93;;
59147;SDS011;44930;52.878;6.168;2022-07-05T11:34:34;1.27;;;0.63;;
59147;SDS011;44930;52.878;6.168;2022-07-05T11:39:38;1.92;;;0.60;;
59147;SDS011;44930;52.878;6.168;2022-07-05T11:42:05;2.45;;;0.50;;
59147;SDS011;44930;52.878;6.168;2022-07-05T11:44:34;1.95;;;0.40;;
59147;SDS011;44930;52.878;6.168;2022-07-05T11:47:01;2.03;;;0.52;;
59147;SDS011;44930;52.878;6.168;2022-07-05T11:49:27;1.75;;;0.40;;
59147;SDS011;44930;52.878;6.168;2022-07-05T11:52:02;1.60;;;0.50;;
59147;SDS011;44930;52.878;6.168;2022-07-05T11:54:29;4.50;;;0.70;;
59147;SDS011;44930;52.878;6.168;2022-07-05T11:56:56;4.60;;;0.55;;
59147;SDS011;44930;52.878;6.168;2022-07-05T11:59:23;6.47;;;0.40;;
59147;SDS011;44930;52.878;6.168;2022-07-05T12:01:50;1.80;;;0.57;;
59147;SDS011;44930;52.878;6.168;2022-07-05T12:04:26;4.25;;;0.90;;
59147;SDS011;44930;52.878;6.168;2022-07-05T12:06:53;2.78;;;0.77;;
59147;SDS011;44930;52.878;6.168;2022-07-05T12:09:27;1.75;;;0.40;;
59147;SDS011;44930;52.878;6.168;2022-07-05T12:12:16;2.58;;;0.73;;
59147;SDS011;44930;52.878;6.168;2022-07-05T12:15:04;3.50;;;0.70;;
59147;SDS011;44930;52.878;6.168;2022-07-05T12:17:32;6.82;;;0.90;;
59147;SDS011;44930;52.878;6.168;2022-07-05T12:19:59;5.00;;;1.00;;
59147;SDS011;44930;52.878;6.168;2022-07-05T12:22:28;4.50;;;0.80;;
59147;SDS011;44930;52.878;6.168;2022-07-05T12:24:59;5.20;;;1.05;;
59147;SDS011;44930;52.878;6.168;2022-07-05T12:27:26;3.10;;;0.93;;
59147;SDS011;44930;52.878;6.168;2022-07-05T12:29:52;4.32;;;0.98;;
59147;SDS011;44930;52.878;6.168;2022-07-05T12:32:18;4.10;;;0.98;;
59147;SDS011;44930;52.878;6.168;2022-07-05T12:34:44;3.05;;;0.93;;
59147;SDS011;44930;52.878;6.168;2022-07-05T12:37:10;2.72;;;0.70;;
59147;SDS011;44930;52.878;6.168;2022-07-05T12:39:35;3.75;;;1.08;;
59147;SDS011;44930;52.878;6.168;2022-07-05T12:42:01;2.97;;;0.98;;
59147;SDS011;44930;52.878;6.168;2022-07-05T12:44:26;4.90;;;0.90;;
59147;SDS011;44930;52.878;6.168;2022-07-05T12:46:52;3.50;;;1.13;;
59147;SDS011;44930;52.878;6.168;2022-07-05T12:49:29;5.57;;;0.75;;
59147;SDS011;44930;52.878;6.168;2022-07-05T12:51:55;2.97;;;1.10;;
59147;SDS011;44930;52.878;6.168;2022-07-05T12:54:29;2.20;;;0.70;;
59147;SDS011;44930;52.878;6.168;2022-07-05T12:57:14;4.57;;;0.93;;
59147;SDS011;44930;52.878;6.168;2022-07-05T12:59:59;2.35;;;0.80;;
59147;SDS011;44930;52.878;6.168;2022-07-05T13:02:41;2.90;;;0.77;;
59147;SDS011;44930;52.878;6.168;2022-07-05T13:05:20;3.30;;;0.90;;
59147;SDS011;44930;52.878;6.168;2022-07-05T13:07:49;2.45;;;0.85;;
59147;SDS011;44930;52.878;6.168;2022-07-05T13:10:23;2.58;;;1.10;;
59147;SDS011;44930;52.878;6.168;2022-07-05T13:12:50;3.08;;;0.80;;
59147;SDS011;44930;52.878;6.168;2022-07-05T13:15:16;1.23;;;0.60;;
59147;SDS011;44930;52.878;6.168;2022-07-05T13:17:42;3.10;;;1.35;;
59147;SDS011;44930;52.878;6.168;2022-07-05T13:20:09;1.98;;;0.60;;
59147;SDS011;44930;52.878;6.168;2022-07-05T13:22:35;5.15;;;1.35;;
59147;SDS011;44930;52.878;6.168;2022-07-05T13:25:00;1.98;;;0.70;;
59147;SDS011;44930;52.878;6.168;2022-07-05T13:27:27;3.92;;;0.80;;
59147;SDS011;44930;52.878;6.168;2022-07-05T13:29:52;3.30;;;0.77;;
59147;SDS011;44930;52.878;6.168;2022-07-05T13:32:18;2.78;;;1.23;;
59147;SDS011;44930;52.878;6.168;2022-07-05T13:34:46;1.85;;;0.73;;
59147;SDS011;44930;52.878;6.168;2022-07-05T13:37:14;2.30;;;0.52;;
59147;SDS011;44930;52.878;6.168;2022-07-05T13:39:40;1.77;;;0.60;;
59147;SDS011;44930;52.878;6.168;2022-07-05T13:42:05;4.72;;;0.65;;
59147;SDS011;44930;52.878;6.168;2022-07-05T13:44:31;2.42;;;0.52;;
59147;SDS011;44930;52.878;6.168;2022-07-05T13:46:57;2.13;;;0.60;;
59147;SDS011;44930;52.878;6.168;2022-07-05T13:49:23;2.00;;;0.60;;
59147;SDS011;44930;52.878;6.168;2022-07-05T13:51:49;1.85;;;0.50;;
59147;SDS011;44930;52.878;6.168;2022-07-05T13:54:15;2.25;;;0.77;;
59147;SDS011;44930;52.878;6.168;2022-07-05T13:56:41;4.47;;;0.90;;
59147;SDS011;44930;52.878;6.168;2022-07-05T13:59:07;1.95;;;0.50;;
59147;SDS011;44930;52.878;6.168;2022-07-05T14:01:32;2.00;;;0.60;;
59147;SDS011;44930;52.878;6.168;2022-07-05T14:03:59;2.58;;;0.68;;
59147;SDS011;44930;52.878;6.168;2022-07-05T14:06:27;4.32;;;1.23;;
59147;SDS011;44930;52.878;6.168;2022-07-05T14:08:54;5.45;;;1.30;;
59147;SDS011;44930;52.878;6.168;2022-07-05T14:11:20;3.38;;;1.00;;
59147;SDS011;44930;52.878;6.168;2022-07-05T14:13:46;3.03;;;0.88;;
59147;SDS011;44930;52.878;6.168;2022-07-05T14:16:11;2.47;;;0.80;;
59147;SDS011;44930;52.878;6.168;2022-07-05T14:18:37;4.03;;;0.85;;
59147;SDS011;44930;52.878;6.168;2022-07-05T14:21:03;4.28;;;0.98;;
59147;SDS011;44930;52.878;6.168;2022-07-05T14:23:28;2.08;;;0.80;;
59147;SDS011;44930;52.878;6.168;2022-07-05T14:25:55;1.95;;;1.25;;
59147;SDS011;44930;52.878;6.168;2022-07-05T14:28:23;3.78;;;1.10;;
59147;SDS011;44930;52.878;6.168;2022-07-05T14:30:48;2.17;;;0.60;;
59147;SDS011;44930;52.878;6.168;2022-07-05T14:33:14;2.03;;;0.70;;
59147;SDS011;44930;52.878;6.168;2022-07-05T14:35:40;1.65;;;0.63;;
59147;SDS011;44930;52.878;6.168;2022-07-05T14:38:06;1.75;;;0.75;;
59147;SDS011;44930;52.878;6.168;2022-07-05T14:40:32;3.20;;;0.65;;
59147;SDS011;44930;52.878;6.168;2022-07-05T14:42:58;4.28;;;1.42;;
59147;SDS011;44930;52.878;6.168;2022-07-05T14:45:25;1.67;;;0.77;;
59147;SDS011;44930;52.878;6.168;2022-07-05T14:47:51;5.93;;;1.40;;
59147;SDS011;44930;52.878;6.168;2022-07-05T14:50:18;3.35;;;1.10;;
59147;SDS011;44930;52.878;6.168;2022-07-05T14:52:45;2.33;;;0.75;;
59147;SDS011;44930;52.878;6.168;2022-07-05T14:55:11;3.00;;;0.85;;
59147;SDS011;44930;52.878;6.168;2022-07-05T14:57:40;4.45;;;0.90;;
59147;SDS011;44930;52.878;6.168;2022-07-05T15:00:07;2.95;;;1.17;;
59147;SDS011;44930;52.878;6.168;2022-07-05T15:02:35;1.85;;;1.05;;
59147;SDS011;44930;52.878;6.168;2022-07-05T15:05:01;3.42;;;1.38;;
59147;SDS011;44930;52.878;6.168;2022-07-05T15:07:28;5.82;;;1.13;;
59147;SDS011;44930;52.878;6.168;2022-07-05T15:09:54;5.70;;;1.20;;
59147;SDS011;44930;52.878;6.168;2022-07-05T15:12:19;3.67;;;1.20;;